Time;durP1;ratioP1;P1;durP2;ratioP2;P2;SDS_P1;SDS_P2;PMS_P1;PMS_P2;Temp;Humidity;BMP_temperature;BMP_pressure;BME280_temperature;BME280_humidity;BME280_pressure;Samples;Min_cycle;Max_cycle;Signal;HPM_P1;HPM_P2
2021/11/05 00:00:36;;;;;;;2.53;2.33;;;9.20;99.90;;;;;;5034303;28;20487;-48
2021/11/05 00:03:02;;;;;;;2.23;1.83;;;9.20;99.90;;;;;;5034422;28;20913;-47
2021/11/05 00:05:31;;;;;;;4.33;2.23;;;9.00;99.90;;;;;;5034360;28;20442;-46
2021/11/05 00:08:02;;;;;;;2.40;2.00;;;9.00;99.90;;;;;;5034061;28;20936;-46
2021/11/05 00:10:30;;;;;;;2.43;2.10;;;8.90;99.90;;;;;;5034307;28;20482;-46
2021/11/05 00:12:58;;;;;;;3.60;2.63;;;8.80;99.90;;;;;;5034248;28;20566;-47
2021/11/05 00:15:25;;;;;;;3.53;2.57;;;9.40;99.90;;;;;;5034326;28;20440;-47
2021/11/05 00:17:52;;;;;;;2.80;2.40;;;9.10;99.90;;;;;;5033716;28;20793;-49
2021/11/05 00:20:18;;;;;;;2.97;2.43;;;8.60;99.90;;;;;;5036011;28;20452;-48
2021/11/05 00:22:45;;;;;;;2.90;2.20;;;9.00;99.90;;;;;;5037857;28;20439;-47
2021/11/05 00:25:13;;;;;;;4.47;2.10;;;9.00;99.90;;;;;;5034418;28;20784;-48
2021/11/05 00:27:41;;;;;;;2.27;1.70;;;8.80;99.90;;;;;;5033651;28;20435;-52
2021/11/05 00:30:10;;;;;;;2.53;1.87;;;8.60;99.90;;;;;;5034246;28;20475;-49
2021/11/05 00:32:38;;;;;;;2.90;1.57;;;8.90;99.90;;;;;;5033637;28;20475;-48
2021/11/05 00:35:05;;;;;;;4.20;1.63;;;8.70;99.90;;;;;;5016098;28;20446;-49
2021/11/05 00:37:32;;;;;;;2.20;1.60;;;9.10;99.90;;;;;;5046506;28;20454;-48
2021/11/05 00:39:59;;;;;;;2.23;1.57;;;9.00;99.90;;;;;;5053389;28;20458;-48
2021/11/05 00:42:27;;;;;;;1.70;1.37;;;8.60;99.90;;;;;;5053618;28;20923;-49
2021/11/05 00:44:53;;;;;;;2.37;1.30;;;8.90;99.90;;;;;;5041113;28;20446;-48
2021/11/05 00:47:20;;;;;;;2.77;1.70;;;8.40;99.90;;;;;;5033864;28;20440;-48
2021/11/05 00:49:47;;;;;;;1.87;1.60;;;8.70;99.90;;;;;;5032072;28;20999;-48
2021/11/05 00:52:13;;;;;;;1.40;1.30;;;8.60;99.90;;;;;;5033406;28;20446;-48
2021/11/05 00:54:40;;;;;;;2.07;1.50;;;8.90;99.90;;;;;;5033673;28;20427;-48
2021/11/05 00:57:07;;;;;;;2.87;1.50;;;9.40;99.90;;;;;;5033400;28;20903;-47
2021/11/05 00:59:35;;;;;;;2.97;1.50;;;8.40;99.90;;;;;;5032922;28;20987;-47
2021/11/05 01:02:02;;;;;;;4.00;1.90;;;9.00;99.90;;;;;;5032893;28;20435;-48
2021/11/05 01:04:29;;;;;;;3.73;1.50;;;8.80;99.90;;;;;;5033235;28;20443;-48
2021/11/05 01:06:55;;;;;;;2.03;1.70;;;8.60;99.90;;;;;;5032078;28;20546;-47
2021/11/05 01:09:22;;;;;;;1.67;1.40;;;8.70;99.90;;;;;;5032667;28;20459;-47
2021/11/05 01:11:49;;;;;;;2.10;1.57;;;8.80;99.90;;;;;;5033124;28;20421;-47
2021/11/05 01:14:15;;;;;;;2.30;1.43;;;8.80;99.90;;;;;;5033437;28;20476;-47
2021/11/05 01:16:43;;;;;;;1.83;1.60;;;8.80;99.90;;;;;;5033006;28;20440;-47
2021/11/05 01:19:10;;;;;;;2.10;1.60;;;8.90;99.90;;;;;;5032788;28;20800;-47
2021/11/05 01:21:37;;;;;;;2.60;1.70;;;8.80;99.90;;;;;;5032761;28;21027;-46
2021/11/05 01:24:04;;;;;;;1.90;1.50;;;8.40;99.90;;;;;;5032903;28;20443;-48
2021/11/05 01:26:30;;;;;;;4.03;1.63;;;8.80;99.90;;;;;;5032719;28;20431;-46
2021/11/05 01:28:57;;;;;;;2.80;1.60;;;8.90;99.90;;;;;;5032371;28;20475;-47
2021/11/05 01:31:24;;;;;;;2.00;1.53;;;8.70;99.90;;;;;;5032590;28;20432;-48
2021/11/05 01:33:53;;;;;;;2.53;2.00;;;8.80;99.90;;;;;;5032757;28;20529;-48
2021/11/05 01:36:19;;;;;;;2.10;1.60;;;8.80;99.90;;;;;;5035409;28;20958;-48
2021/11/05 01:38:46;;;;;;;2.87;2.20;;;9.00;99.90;;;;;;5056485;28;20462;-48
2021/11/05 01:41:13;;;;;;;2.57;2.30;;;9.00;99.90;;;;;;5052545;28;20858;-47
2021/11/05 01:43:39;;;;;;;2.23;1.70;;;8.40;99.90;;;;;;5050141;28;20438;-48
2021/11/05 01:46:08;;;;;;;3.10;2.80;;;8.60;99.90;;;;;;5032571;28;20427;-48
2021/11/05 01:48:35;;;;;;;3.17;2.20;;;8.90;99.90;;;;;;5032148;28;20974;-48
2021/11/05 01:51:04;;;;;;;2.20;2.00;;;8.80;99.90;;;;;;5032583;28;20463;-47
2021/11/05 01:53:31;;;;;;;5.60;2.20;;;8.90;99.90;;;;;;5032323;28;20479;-48
2021/11/05 01:55:58;;;;;;;2.20;2.00;;;8.70;99.90;;;;;;5032355;28;20436;-48
2021/11/05 01:58:26;;;;;;;1.60;1.50;;;8.50;99.90;;;;;;5032179;28;20823;-48
2021/11/05 02:00:52;;;;;;;2.80;2.33;;;9.10;99.90;;;;;;5032177;28;20436;-48
2021/11/05 02:03:19;;;;;;;2.17;1.90;;;8.60;99.90;;;;;;5032168;28;20432;-47
2021/11/05 02:05:46;;;;;;;2.40;1.83;;;8.80;99.90;;;;;;5032205;28;20830;-47
2021/11/05 02:08:15;;;;;;;2.23;1.80;;;8.80;99.90;;;;;;5031799;28;20439;-47
2021/11/05 02:10:45;;;;;;;2.87;2.33;;;8.90;99.90;;;;;;5032102;28;20446;-48
2021/11/05 02:13:14;;;;;;;5.10;2.07;;;9.20;99.90;;;;;;5031354;28;20454;-48
2021/11/05 02:15:41;;;;;;;2.83;1.90;;;9.00;99.90;;;;;;5032027;28;20431;-48
2021/11/05 02:18:08;;;;;;;1.70;1.60;;;8.70;99.90;;;;;;5031664;28;20439;-47
2021/11/05 02:20:36;;;;;;;2.87;1.70;;;8.80;99.90;;;;;;5031824;28;20960;-47
2021/11/05 02:23:05;;;;;;;1.80;1.50;;;9.00;99.90;;;;;;5032256;28;20471;-47
2021/11/05 02:25:32;;;;;;;3.93;1.47;;;9.00;99.90;;;;;;5031915;28;20459;-47
2021/11/05 02:27:59;;;;;;;2.20;2.00;;;9.00;99.90;;;;;;5031606;28;20911;-49
2021/11/05 02:30:26;;;;;;;2.77;1.60;;;8.70;99.90;;;;;;5031747;28;20446;-48
2021/11/05 02:32:53;;;;;;;3.30;1.80;;;8.50;99.90;;;;;;5031733;28;20478;-48
2021/11/05 02:35:20;;;;;;;2.67;1.80;;;9.20;99.90;;;;;;5031693;28;20425;-47
2021/11/05 02:37:47;;;;;;;2.63;1.93;;;8.80;99.90;;;;;;5045992;28;20458;-48
2021/11/05 02:40:17;;;;;;;3.07;2.43;;;8.80;99.90;;;;;;5051547;28;20486;-48
2021/11/05 02:42:44;;;;;;;5.37;3.60;;;9.00;99.90;;;;;;5033654;28;20561;-48
2021/11/05 02:45:11;;;;;;;3.50;3.20;;;8.90;99.90;;;;;;5036887;28;20826;-48
2021/11/05 02:47:37;;;;;;;5.23;3.70;;;9.00;99.90;;;;;;5031424;28;20920;-47
2021/11/05 02:50:08;;;;;;;3.73;3.43;;;8.50;99.90;;;;;;5031308;28;20447;-48
2021/11/05 02:52:35;;;;;;;3.60;3.10;;;8.90;99.90;;;;;;5031669;28;20526;-48
2021/11/05 02:55:02;;;;;;;2.80;2.30;;;8.40;99.90;;;;;;5033012;28;20962;-48
2021/11/05 02:57:30;;;;;;;3.27;2.87;;;8.80;99.90;;;;;;5035153;28;20435;-48
2021/11/05 02:59:57;;;;;;;4.50;2.67;;;9.00;99.90;;;;;;5031317;28;20822;-48
2021/11/05 03:02:24;;;;;;;3.77;3.00;;;9.30;99.90;;;;;;5031390;28;20422;-49
2021/11/05 03:04:52;;;;;;;2.93;2.33;;;9.20;99.90;;;;;;5031474;28;20451;-48
2021/11/05 03:07:18;;;;;;;2.40;2.03;;;8.40;99.90;;;;;;5031462;28;20443;-48
2021/11/05 03:09:45;;;;;;;2.60;2.30;;;8.90;99.90;;;;;;5029762;28;20984;-47
2021/11/05 03:12:13;;;;;;;3.33;2.60;;;9.00;99.90;;;;;;5031472;28;20406;-48
2021/11/05 03:14:41;;;;;;;2.70;2.37;;;9.10;99.90;;;;;;5031326;28;20479;-48
2021/11/05 03:17:08;;;;;;;5.27;2.60;;;9.30;99.90;;;;;;5031378;28;21016;-48
2021/11/05 03:19:36;;;;;;;2.50;2.27;;;9.10;99.90;;;;;;5030955;28;20509;-47
2021/11/05 03:22:02;;;;;;;3.93;3.00;;;8.70;99.90;;;;;;5031444;28;20806;-48
2021/11/05 03:24:29;;;;;;;3.37;2.60;;;9.00;99.90;;;;;;5032996;28;20435;-49
2021/11/05 03:26:56;;;;;;;3.70;2.80;;;9.50;99.90;;;;;;5035128;28;20457;-48
2021/11/05 03:29:23;;;;;;;3.97;3.57;;;9.50;99.90;;;;;;5034446;28;20481;-48
2021/11/05 03:31:51;;;;;;;3.67;3.37;;;9.40;99.90;;;;;;5034899;28;20924;-48
2021/11/05 03:34:18;;;;;;;5.33;3.00;;;9.40;99.90;;;;;;5034958;28;20537;-48
2021/11/05 03:36:45;;;;;;;3.83;3.33;;;8.80;99.90;;;;;;5041068;28;20438;-48
2021/11/05 03:39:11;;;;;;;6.03;3.63;;;9.50;99.90;;;;;;5054374;28;20458;-48
2021/11/05 03:41:38;;;;;;;4.20;3.70;;;8.90;99.90;;;;;;5055267;28;20430;-48
2021/11/05 03:44:05;;;;;;;6.60;3.57;;;9.10;99.90;;;;;;5048630;28;20421;-48
2021/11/05 03:46:34;;;;;;;5.43;4.73;;;8.90;99.90;;;;;;5034716;28;20846;-48
2021/11/05 03:49:02;;;;;;;5.80;5.23;;;8.80;99.90;;;;;;5034298;28;20474;-48
2021/11/05 03:51:29;;;;;;;5.30;4.80;;;9.20;99.90;;;;;;5034651;28;20435;-47
2021/11/05 03:53:55;;;;;;;6.90;5.73;;;9.20;99.90;;;;;;5033355;28;20839;-48
2021/11/05 03:56:22;;;;;;;6.00;5.30;;;9.10;99.90;;;;;;5034577;28;20428;-48
2021/11/05 03:58:49;;;;;;;6.57;4.57;;;9.50;99.90;;;;;;5034057;28;20445;-47
2021/11/05 04:01:19;;;;;;;8.40;4.23;;;9.40;99.90;;;;;;5034541;28;20398;-48
2021/11/05 04:03:46;;;;;;;4.70;4.20;;;9.30;99.90;;;;;;5034568;28;20451;-48
2021/11/05 04:06:14;;;;;;;5.77;4.70;;;9.20;99.90;;;;;;5034356;28;20442;-48
2021/11/05 04:08:40;;;;;;;4.70;4.10;;;9.00;99.90;;;;;;5033804;28;20458;-48
2021/11/05 04:11:07;;;;;;;5.10;4.60;;;9.30;99.90;;;;;;5034062;28;20436;-48
2021/11/05 04:13:34;;;;;;;5.23;4.73;;;9.40;99.90;;;;;;5036909;28;20475;-48
2021/11/05 04:16:00;;;;;;;5.50;4.80;;;9.20;99.90;;;;;;5035679;28;20936;-48
2021/11/05 04:18:27;;;;;;;6.83;5.77;;;9.40;99.90;;;;;;5033839;28;20751;-47
2021/11/05 04:20:54;;;;;;;6.43;5.83;;;9.10;99.90;;;;;;5034725;28;20773;-48
2021/11/05 04:23:22;;;;;;;7.37;6.63;;;9.20;99.90;;;;;;5034112;28;20443;-48
2021/11/05 04:25:49;;;;;;;7.40;6.70;;;9.00;99.90;;;;;;5034111;28;20444;-47
2021/11/05 04:28:16;;;;;;;7.13;6.07;;;8.90;99.90;;;;;;5033693;28;20444;-49
2021/11/05 04:30:43;;;;;;;7.67;6.87;;;9.20;99.90;;;;;;5033978;28;20432;-48
2021/11/05 04:33:11;;;;;;;7.57;6.87;;;9.20;99.90;;;;;;5034181;28;20439;-48
2021/11/05 04:35:38;;;;;;;8.20;7.47;;;9.40;99.90;;;;;;5032951;28;20424;-48
2021/11/05 04:38:05;;;;;;;8.87;8.07;;;9.40;99.90;;;;;;5050303;28;20476;-48
2021/11/05 04:40:33;;;;;;;9.17;8.27;;;8.90;99.90;;;;;;5053515;28;20472;-47
2021/11/05 04:43:00;;;;;;;10.47;9.37;;;9.30;99.90;;;;;;5053609;28;20446;-47
2021/11/05 04:45:26;;;;;;;11.10;9.07;;;9.30;99.90;;;;;;5018547;28;20444;-48
2021/11/05 04:47:53;;;;;;;11.43;10.07;;;9.40;99.90;;;;;;5033196;28;20522;-48
2021/11/05 04:50:20;;;;;;;11.13;9.60;;;9.40;99.90;;;;;;5033313;28;20456;-48
2021/11/05 04:52:48;;;;;;;11.93;10.03;;;9.40;99.90;;;;;;5033214;28;20443;-48
2021/11/05 04:55:16;;;;;;;11.70;9.20;;;9.70;99.90;;;;;;5033202;28;20533;-47
2021/11/05 04:57:44;;;;;;;9.87;8.90;;;9.40;99.90;;;;;;5032926;28;20406;-48
2021/11/05 05:00:12;;;;;;;10.47;9.30;;;9.10;99.90;;;;;;5033491;28;20455;-48
2021/11/05 05:02:39;;;;;;;10.90;9.80;;;9.50;99.90;;;;;;5033323;28;20436;-48
2021/11/05 05:05:06;;;;;;;11.13;9.93;;;9.60;99.90;;;;;;5033034;28;20464;-48
2021/11/05 05:07:33;;;;;;;15.10;13.60;;;9.50;99.90;;;;;;5033015;28;20446;-47
2021/11/05 05:10:00;;;;;;;15.80;13.13;;;9.50;99.90;;;;;;5032874;28;20808;-47
2021/11/05 05:12:26;;;;;;;18.70;16.70;;;9.20;99.90;;;;;;5032892;28;20444;-47
2021/11/05 05:14:54;;;;;;;22.23;17.73;;;9.50;99.90;;;;;;5032722;28;20489;-47
2021/11/05 05:17:21;;;;;;;25.03;19.70;;;9.00;99.90;;;;;;5032860;28;20428;-47
2021/11/05 05:19:48;;;;;;;20.73;17.80;;;9.40;99.90;;;;;;5032233;28;20963;-47
2021/11/05 05:22:15;;;;;;;22.13;19.33;;;9.60;99.90;;;;;;5032845;28;20984;-48
2021/11/05 05:24:41;;;;;;;18.37;15.93;;;9.40;99.90;;;;;;5032678;28;20425;-48
2021/11/05 05:27:08;;;;;;;19.90;16.20;;;9.40;99.90;;;;;;5032535;28;20431;-48
2021/11/05 05:29:35;;;;;;;17.40;15.60;;;9.10;99.90;;;;;;5032341;28;20483;-46
2021/11/05 05:32:04;;;;;;;18.80;16.37;;;9.40;99.90;;;;;;5034758;28;20428;-49
2021/11/05 05:34:30;;;;;;;19.20;17.13;;;9.60;99.90;;;;;;5032653;28;20470;-46
2021/11/05 05:36:57;;;;;;;22.50;19.60;;;9.70;99.90;;;;;;5040067;28;20507;-47
2021/11/05 05:39:24;;;;;;;25.10;21.13;;;9.50;99.90;;;;;;5051894;28;20541;-49
2021/11/05 05:41:51;;;;;;;25.63;22.80;;;9.70;99.90;;;;;;5052367;28;20434;-47
2021/11/05 05:44:18;;;;;;;24.70;22.00;;;9.20;99.90;;;;;;5044450;28;20451;-49
2021/11/05 05:46:45;;;;;;;26.50;23.53;;;9.90;99.90;;;;;;5032388;28;20424;-49
2021/11/05 05:49:13;;;;;;;22.70;20.13;;;9.50;99.90;;;;;;5031747;28;20476;-48
2021/11/05 05:51:39;;;;;;;22.00;18.60;;;9.50;99.90;;;;;;5032102;28;20432;-48
2021/11/05 05:54:06;;;;;;;20.40;18.30;;;9.20;99.90;;;;;;5031963;28;20475;-48
2021/11/05 05:56:33;;;;;;;24.10;20.33;;;9.30;99.90;;;;;;5032138;28;20428;-47
2021/11/05 05:58:59;;;;;;;25.37;22.03;;;9.60;99.90;;;;;;5031644;28;20492;-48
2021/11/05 06:01:26;;;;;;;28.23;22.70;;;9.40;99.90;;;;;;5032183;28;20436;-48
2021/11/05 06:03:53;;;;;;;27.93;23.17;;;9.60;99.90;;;;;;5031963;28;20457;-47
2021/11/05 06:06:21;;;;;;;27.67;23.70;;;9.40;99.90;;;;;;5031403;28;20443;-47
2021/11/05 06:08:47;;;;;;;26.20;21.73;;;10.00;99.90;;;;;;5013689;28;20511;-47
2021/11/05 06:11:14;;;;;;;33.17;25.57;;;9.50;99.90;;;;;;5031768;28;20413;-48
2021/11/05 06:13:41;;;;;;;22.90;20.40;;;9.60;99.90;;;;;;5031809;28;20447;-48
2021/11/05 06:16:09;;;;;;;26.10;22.60;;;9.50;99.90;;;;;;5031591;28;20853;-48
2021/11/05 06:18:37;;;;;;;26.60;21.50;;;9.40;99.90;;;;;;5031277;28;20471;-47
2021/11/05 06:21:04;;;;;;;27.53;20.57;;;9.50;99.90;;;;;;5031458;28;20428;-48
2021/11/05 06:23:32;;;;;;;28.27;22.83;;;9.30;99.90;;;;;;5031288;28;20422;-49
2021/11/05 06:26:00;;;;;;;26.37;20.40;;;9.20;99.90;;;;;;5031557;28;20427;-47
2021/11/05 06:28:26;;;;;;;28.17;21.63;;;9.90;99.90;;;;;;5013268;28;20459;-49
2021/11/05 06:30:53;;;;;;;24.50;21.07;;;9.40;99.90;;;;;;5078630;23;20497;-51
2021/11/05 06:33:20;;;;;;;26.40;20.30;;;9.30;99.90;;;;;;5050480;28;20802;-51
2021/11/05 06:35:47;;;;;;;26.27;21.37;;;9.10;99.90;;;;;;5051066;28;20859;-51
2021/11/05 06:38:14;;;;;;;26.53;20.53;;;9.60;99.90;;;;;;5049784;28;20450;-52
2021/11/05 06:40:42;;;;;;;28.83;25.27;;;10.10;99.90;;;;;;5050751;28;20475;-52
2021/11/05 06:43:09;;;;;;;29.27;23.47;;;9.50;99.90;;;;;;5050421;28;20953;-53
2021/11/05 06:45:36;;;;;;;30.47;23.60;;;9.40;99.90;;;;;;5050045;28;20531;-51
2021/11/05 06:48:03;;;;;;;28.30;23.23;;;9.60;99.90;;;;;;5048360;28;20496;-51
2021/11/05 06:50:30;;;;;;;32.30;22.30;;;9.80;99.90;;;;;;5049934;28;20982;-51
2021/11/05 06:52:56;;;;;;;29.13;23.43;;;9.90;99.90;;;;;;5050375;28;20477;-52
2021/11/05 06:55:23;;;;;;;29.83;24.87;;;9.70;99.90;;;;;;5050446;28;20936;-51
2021/11/05 06:57:51;;;;;;;35.97;27.70;;;9.70;99.90;;;;;;5049528;28;20454;-52
2021/11/05 07:00:18;;;;;;;30.27;24.03;;;9.60;99.90;;;;;;5053640;28;20454;-51
2021/11/05 07:02:44;;;;;;;35.10;23.77;;;9.80;99.90;;;;;;5054959;28;20426;-51
2021/11/05 07:05:14;;;;;;;28.90;22.07;;;9.50;99.90;;;;;;5053168;28;20959;-52
2021/11/05 07:07:41;;;;;;;18.50;16.57;;;10.20;99.90;;;;;;5054518;28;20442;-52
2021/11/05 07:10:10;;;;;;;21.93;18.47;;;9.90;99.90;;;;;;5054807;28;20494;-51
2021/11/05 07:12:38;;;;;;;23.77;18.30;;;9.70;99.90;;;;;;5054385;28;20426;-53
2021/11/05 07:15:08;;;;;;;25.83;20.47;;;9.70;99.90;;;;;;5054032;28;20495;-52
2021/11/05 07:17:34;;;;;;;25.40;18.00;;;9.70;99.90;;;;;;5054193;28;20505;-52
2021/11/05 07:20:01;;;;;;;23.70;19.03;;;9.60;99.90;;;;;;5053952;28;20460;-52
2021/11/05 07:22:28;;;;;;;20.50;15.80;;;9.50;99.90;;;;;;5054127;28;20956;-52
2021/11/05 07:24:54;;;;;;;19.00;15.97;;;9.70;99.90;;;;;;5054228;28;20425;-52
2021/11/05 07:27:21;;;;;;;17.37;14.73;;;9.80;99.90;;;;;;5054449;28;20422;-52
2021/11/05 07:29:48;;;;;;;21.57;15.57;;;10.00;99.90;;;;;;5053978;28;20476;-52
2021/11/05 07:32:16;;;;;;;19.00;16.13;;;9.20;99.90;;;;;;5053237;28;20434;-52
2021/11/05 07:34:43;;;;;;;17.77;14.70;;;9.80;99.90;;;;;;5054079;28;20481;-52
2021/11/05 07:37:14;;;;;;;15.73;14.03;;;10.20;99.90;;;;;;5054071;28;20806;-52
2021/11/05 07:39:42;;;;;;;16.93;14.40;;;10.10;99.90;;;;;;5053759;28;20458;-52
2021/11/05 07:42:09;;;;;;;22.60;16.17;;;9.70;99.90;;;;;;5054287;28;20442;-52
2021/11/05 07:44:36;;;;;;;19.03;13.77;;;9.90;99.90;;;;;;5054007;28;20450;-51
2021/11/05 07:47:04;;;;;;;18.10;14.43;;;9.70;99.90;;;;;;5053274;28;20463;-52
2021/11/05 07:49:32;;;;;;;19.10;14.47;;;9.30;99.90;;;;;;5053468;28;20458;-52
2021/11/05 07:51:58;;;;;;;20.00;14.33;;;10.00;99.90;;;;;;5053579;28;20469;-50
2021/11/05 07:54:25;;;;;;;20.40;14.00;;;10.30;99.90;;;;;;5053922;28;20453;-51
2021/11/05 07:56:51;;;;;;;19.63;15.30;;;9.40;99.90;;;;;;5053739;28;20792;-51
2021/11/05 07:59:19;;;;;;;20.20;15.13;;;10.40;99.90;;;;;;5053004;28;20469;-52
2021/11/05 08:01:45;;;;;;;18.80;14.50;;;9.90;99.90;;;;;;5053409;28;20530;-51
2021/11/05 08:04:12;;;;;;;14.80;12.03;;;9.90;99.90;;;;;;5053918;28;20771;-52
2021/11/05 08:06:40;;;;;;;17.67;13.67;;;9.80;99.90;;;;;;5053029;28;20435;-51
2021/11/05 08:09:07;;;;;;;20.03;14.10;;;9.60;99.90;;;;;;5051445;28;20445;-53
2021/11/05 08:11:35;;;;;;;19.13;13.70;;;9.70;99.90;;;;;;5051982;28;20433;-52
2021/11/05 08:14:02;;;;;;;19.20;11.67;;;10.00;99.90;;;;;;5053459;28;20444;-52
2021/11/05 08:16:29;;;;;;;18.23;11.20;;;9.70;99.90;;;;;;5052874;28;20939;-51
2021/11/05 08:18:55;;;;;;;19.80;14.03;;;9.60;99.90;;;;;;5052395;28;20405;-51
2021/11/05 08:21:22;;;;;;;19.10;13.20;;;9.90;99.90;;;;;;5053925;28;20445;-52
2021/11/05 08:23:50;;;;;;;16.90;12.27;;;9.90;99.90;;;;;;5053717;28;20433;-52
2021/11/05 08:26:17;;;;;;;15.70;12.30;;;10.00;99.90;;;;;;5052860;28;20449;-51
2021/11/05 08:28:44;;;;;;;15.47;12.43;;;10.20;99.90;;;;;;5052949;28;20799;-51
2021/11/05 08:31:13;;;;;;;13.97;11.70;;;10.10;99.90;;;;;;5052251;28;20500;-51
2021/11/05 08:33:41;;;;;;;19.93;12.07;;;10.00;99.90;;;;;;5052657;28;20432;-51
2021/11/05 08:36:09;;;;;;;13.03;11.20;;;10.20;99.90;;;;;;5052509;28;20497;-50
2021/11/05 08:38:36;;;;;;;17.13;13.73;;;9.90;99.90;;;;;;5052697;28;20409;-51
2021/11/05 08:41:05;;;;;;;14.37;11.60;;;10.60;99.90;;;;;;5052494;28;20451;-52
2021/11/05 08:43:33;;;;;;;16.70;11.70;;;10.40;99.90;;;;;;5052206;28;20431;-52
2021/11/05 08:46:01;;;;;;;15.40;11.90;;;10.40;99.90;;;;;;5051629;28;20899;-51
2021/11/05 08:48:29;;;;;;;17.20;12.37;;;10.40;99.90;;;;;;5052034;28;20522;-52
2021/11/05 08:50:57;;;;;;;15.33;12.17;;;10.30;99.90;;;;;;5052473;28;20458;-50
2021/11/05 08:53:24;;;;;;;15.67;12.80;;;10.50;99.90;;;;;;5050075;28;20462;-51
2021/11/05 08:55:50;;;;;;;17.70;13.07;;;10.10;99.90;;;;;;5052634;28;20474;-51
2021/11/05 08:58:19;;;;;;;16.70;10.97;;;10.40;99.90;;;;;;5052373;28;20431;-51
2021/11/05 09:00:45;;;;;;;15.97;11.33;;;10.10;99.90;;;;;;5052196;28;20874;-51
2021/11/05 09:03:12;;;;;;;12.63;10.80;;;10.40;99.90;;;;;;5052399;28;20435;-51
2021/11/05 09:05:39;;;;;;;13.80;10.90;;;10.40;99.90;;;;;;5052577;28;20962;-51
2021/11/05 09:08:06;;;;;;;13.73;11.10;;;10.50;99.90;;;;;;5052118;28;20439;-52
2021/11/05 09:10:33;;;;;;;14.47;10.87;;;10.50;99.90;;;;;;5050901;28;20489;-51
2021/11/05 09:13:00;;;;;;;14.90;10.40;;;10.80;99.90;;;;;;5052209;28;20413;-51
2021/11/05 09:15:29;;;;;;;13.20;10.70;;;10.70;99.90;;;;;;5051936;28;20475;-51
2021/11/05 09:17:57;;;;;;;13.87;10.83;;;10.10;99.90;;;;;;5051598;28;20410;-51
2021/11/05 09:20:24;;;;;;;14.90;10.90;;;10.70;99.90;;;;;;5050722;28;20465;-53
2021/11/05 09:22:51;;;;;;;14.23;11.00;;;11.00;99.90;;;;;;5052166;28;20945;-52
2021/11/05 09:25:18;;;;;;;14.30;10.20;;;10.70;99.90;;;;;;5052280;28;21012;-51
2021/11/05 09:27:47;;;;;;;15.10;9.97;;;10.70;99.90;;;;;;5051506;28;20450;-51
2021/11/05 09:30:15;;;;;;;11.10;9.47;;;10.60;99.90;;;;;;5052156;28;20569;-52
2021/11/05 09:32:43;;;;;;;13.43;10.07;;;10.30;99.90;;;;;;5052197;28;20427;-52
2021/11/05 09:35:10;;;;;;;13.77;9.90;;;10.60;99.90;;;;;;5051935;28;20470;-51
2021/11/05 09:37:38;;;;;;;11.37;9.70;;;10.70;99.90;;;;;;5051783;28;20959;-52
2021/11/05 09:40:07;;;;;;;11.20;8.60;;;10.50;99.90;;;;;;5050217;28;20561;-52
2021/11/05 09:42:35;;;;;;;11.03;8.77;;;10.70;99.90;;;;;;5051506;28;20784;-51
2021/11/05 09:45:01;;;;;;;10.57;8.10;;;10.70;99.90;;;;;;5051785;28;20846;-51
2021/11/05 09:47:29;;;;;;;11.90;9.17;;;11.10;99.90;;;;;;5051620;28;20442;-51
2021/11/05 09:49:58;;;;;;;10.53;7.77;;;10.40;99.90;;;;;;5051179;28;20455;-52
2021/11/05 09:52:25;;;;;;;12.10;7.90;;;10.60;99.90;;;;;;5051233;28;20534;-52
2021/11/05 09:54:52;;;;;;;9.20;7.70;;;11.00;99.90;;;;;;5051227;28;20436;-51
2021/11/05 09:57:19;;;;;;;10.70;8.00;;;10.70;99.90;;;;;;5051918;28;20439;-53
2021/11/05 09:59:45;;;;;;;9.43;7.83;;;10.70;99.90;;;;;;5051000;28;20549;-52
2021/11/05 10:02:14;;;;;;;10.13;7.83;;;10.90;99.90;;;;;;5051435;28;20439;-51
2021/11/05 10:04:41;;;;;;;16.60;8.23;;;11.00;99.90;;;;;;5051480;28;20504;-52
2021/11/05 10:07:11;;;;;;;10.13;7.63;;;11.40;99.90;;;;;;5050787;28;20793;-52
2021/11/05 10:09:40;;;;;;;9.60;8.60;;;10.90;99.90;;;;;;5051643;28;20497;-52
2021/11/05 10:12:10;;;;;;;11.02;9.00;;;11.00;99.90;;;;;;5050232;28;20439;-52
2021/11/05 10:14:38;;;;;;;9.73;8.70;;;11.60;99.90;;;;;;5050737;28;20518;-52
2021/11/05 10:17:07;;;;;;;12.03;7.87;;;11.60;99.90;;;;;;5051167;28;20278;-53
2021/11/05 10:19:51;;;;;;;9.77;7.75;;;11.30;99.90;;;;;;5049983;28;20427;-53
2021/11/05 10:22:46;;;;;;;8.63;6.47;;;11.60;99.90;;;;;;5050860;28;20204;-52
2021/11/05 10:25:25;;;;;;;9.87;6.27;;;12.20;99.90;;;;;;5051409;28;20437;-51
2021/11/05 10:28:11;;;;;;;9.23;7.13;;;11.50;99.90;;;;;;5050545;28;20434;-51
2021/11/05 10:30:49;;;;;;;11.30;7.63;;;11.40;99.90;;;;;;5049949;28;20583;-52
2021/11/05 10:33:18;;;;;;;10.30;7.53;;;11.60;99.90;;;;;;5050914;28;20763;-52
2021/11/05 10:35:47;;;;;;;7.03;6.23;;;10.90;99.90;;;;;;5050917;28;20467;-51
2021/11/05 10:38:19;;;;;;;8.90;6.47;;;11.30;99.90;;;;;;5050480;28;20800;-51
2021/11/05 10:40:49;;;;;;;8.13;5.23;;;11.10;99.90;;;;;;5050973;28;20514;-51
2021/11/05 10:43:19;;;;;;;9.07;5.77;;;11.00;99.90;;;;;;5050622;28;20801;-52
2021/11/05 10:45:47;;;;;;;7.33;5.80;;;11.20;99.90;;;;;;5050777;28;20445;-52
2021/11/05 10:48:16;;;;;;;6.80;5.77;;;11.00;99.90;;;;;;5050470;28;20410;-53
2021/11/05 10:50:50;;;;;;;8.05;5.88;;;11.30;99.90;;;;;;5050237;28;20427;-52
2021/11/05 10:53:20;;;;;;;9.63;6.70;;;11.30;99.90;;;;;;5051207;28;20693;-51
2021/11/05 10:55:48;;;;;;;12.13;6.97;;;11.00;99.90;;;;;;5051094;28;20483;-52
2021/11/05 10:58:22;;;;;;;11.90;4.87;;;11.50;99.90;;;;;;5050275;28;20439;-52
2021/11/05 11:00:52;;;;;;;14.13;5.90;;;11.40;99.90;;;;;;5050863;28;20447;-52
2021/11/05 11:03:22;;;;;;;9.10;5.20;;;11.50;99.90;;;;;;5051289;28;20437;-52
2021/11/05 11:05:49;;;;;;;7.00;5.07;;;11.50;99.90;;;;;;5051032;28;20442;-52
2021/11/05 11:08:22;;;;;;;15.33;6.43;;;11.70;99.90;;;;;;5050809;28;20440;-52
2021/11/05 11:10:51;;;;;;;11.33;5.90;;;11.70;99.90;;;;;;5051312;28;20459;-52
2021/11/05 11:13:30;;;;;;;8.37;6.53;;;11.50;99.90;;;;;;5051310;28;20411;-50
2021/11/05 11:15:57;;;;;;;11.00;5.73;;;12.00;99.90;;;;;;5051028;28;20973;-51
2021/11/05 11:18:24;;;;;;;8.53;6.23;;;11.40;99.90;;;;;;5050770;28;20414;-51
2021/11/05 11:20:51;;;;;;;8.43;6.13;;;11.50;99.90;;;;;;5051253;28;20459;-53
2021/11/05 11:23:18;;;;;;;9.23;6.60;;;11.80;99.90;;;;;;5051593;28;20437;-52
2021/11/05 11:25:46;;;;;;;8.00;5.30;;;11.90;99.90;;;;;;5051076;28;20439;-52
2021/11/05 11:28:13;;;;;;;8.50;4.70;;;11.50;99.90;;;;;;5050112;28;20430;-51
2021/11/05 11:30:39;;;;;;;8.60;5.70;;;11.80;99.90;;;;;;5050617;28;20550;-52
2021/11/05 11:33:06;;;;;;;9.60;5.60;;;11.00;99.90;;;;;;5050413;28;20450;-52
2021/11/05 11:35:34;;;;;;;9.05;6.40;;;11.60;99.90;;;;;;5049785;28;20435;-52
2021/11/05 11:38:02;;;;;;;10.23;5.80;;;11.40;99.90;;;;;;5050060;28;20279;-51
2021/11/05 11:40:29;;;;;;;7.67;5.93;;;11.70;99.90;;;;;;5051432;28;20492;-52
2021/11/05 11:42:57;;;;;;;7.23;5.80;;;11.90;99.90;;;;;;5050971;28;20402;-52
2021/11/05 11:45:24;;;;;;;8.70;6.07;;;11.00;99.90;;;;;;5052418;28;20425;-53
2021/11/05 11:47:55;;;;;;;10.23;7.60;;;11.50;99.90;;;;;;5053442;28;20431;-52
2021/11/05 11:50:25;;;;;;;9.07;6.13;;;11.80;99.90;;;;;;5053974;28;20513;-51
2021/11/05 11:53:04;;;;;;;8.33;6.20;;;10.80;99.90;;;;;;5054170;28;20410;-53
2021/11/05 11:55:32;;;;;;;10.17;6.23;;;11.80;99.90;;;;;;5054036;28;20419;-52
2021/11/05 11:58:16;;;;;;;8.60;5.87;;;11.40;99.90;;;;;;5053038;28;20729;-53
2021/11/05 12:00:44;;;;;;;9.17;6.73;;;11.40;99.90;;;;;;5053422;28;20567;-53
2021/11/05 12:03:14;;;;;;;10.00;7.20;;;11.90;99.90;;;;;;5054387;28;20448;-51
2021/11/05 12:05:44;;;;;;;9.33;6.60;;;11.30;99.90;;;;;;5053371;28;20453;-51
2021/11/05 12:08:17;;;;;;;10.70;5.57;;;11.30;99.90;;;;;;5052402;28;20438;-52
2021/11/05 12:10:48;;;;;;;8.07;6.53;;;11.20;99.90;;;;;;5053267;28;20452;-53
2021/11/05 12:13:43;;;;;;;7.77;5.70;;;11.60;99.90;;;;;;5053174;28;20443;-53
2021/11/05 12:16:24;;;;;;;9.00;6.37;;;11.70;99.90;;;;;;5053263;28;20567;-52
2021/11/05 12:19:19;;;;;;;9.03;6.10;;;12.00;99.90;;;;;;5052567;28;20653;-53
2021/11/05 12:21:50;;;;;;;11.05;7.30;;;11.60;99.90;;;;;;5052228;28;20428;-52
2021/11/05 12:24:27;;;;;;;8.53;7.13;;;11.90;99.90;;;;;;5052876;28;20324;-53
2021/11/05 12:26:57;;;;;;;9.67;7.07;;;12.20;99.90;;;;;;5052923;28;20470;-53
2021/11/05 12:29:50;;;;;;;18.60;7.77;;;12.30;99.90;;;;;;5075610;22;20564;-53
2021/11/05 12:32:30;;;;;;;8.00;6.57;;;12.00;99.90;;;;;;5015050;28;20436;-53
2021/11/05 12:35:17;;;;;;;13.23;7.77;;;12.00;99.90;;;;;;5016988;28;20453;-53
2021/11/05 12:37:52;;;;;;;11.63;9.00;;;11.70;99.90;;;;;;5015639;28;21079;-52
2021/11/05 12:40:31;;;;;;;14.33;10.27;;;12.10;99.90;;;;;;5005949;28;20490;-52
2021/11/05 12:42:59;;;;;;;9.60;8.70;;;12.10;99.90;;;;;;4996884;28;20439;-52
2021/11/05 12:45:48;;;;;;;10.97;9.70;;;12.00;99.90;;;;;;4996506;28;20979;-53
2021/11/05 12:48:16;;;;;;;10.50;8.80;;;12.20;99.90;;;;;;4995088;28;20405;-52
2021/11/05 12:50:45;;;;;;;11.67;9.70;;;11.70;99.90;;;;;;4996291;28;20827;-53